sensor_id;sensor_type;location;lat;lon;timestamp;pressure;altitude;pressure_sealevel;temperature;humidity
20111;BME280;10216;42.658;23.248;2023-06-24T00:00:35;93773.69;;;19.88;nan
20111;BME280;10216;42.658;23.248;2023-06-24T00:03:02;93778.50;;;19.92;nan
20111;BME280;10216;42.658;23.248;2023-06-24T00:05:27;93776.09;;;19.90;nan
20111;BME280;10216;42.658;23.248;2023-06-24T00:07:53;93773.16;;;19.86;nan
20111;BME280;10216;42.658;23.248;2023-06-24T00:10:22;93784.78;;;19.84;nan
20111;BME280;10216;42.658;23.248;2023-06-24T00:12:47;93776.38;;;19.82;nan
20111;BME280;10216;42.658;23.248;2023-06-24T00:15:12;93777.19;;;19.82;nan
20111;BME280;10216;42.658;23.248;2023-06-24T00:17:38;93769.38;;;19.82;nan
20111;BME280;10216;42.658;23.248;2023-06-24T00:20:06;93774.03;;;19.80;nan
20111;BME280;10216;42.658;23.248;2023-06-24T00:22:36;93777.47;;;19.74;nan
20111;BME280;10216;42.658;23.248;2023-06-24T00:25:01;93773.72;;;19.70;nan
20111;BME280;10216;42.658;23.248;2023-06-24T00:27:27;93774.81;;;19.63;nan
20111;BME280;10216;42.658;23.248;2023-06-24T00:29:52;93769.38;;;19.64;nan
20111;BME280;10216;42.658;23.248;2023-06-24T00:32:17;93774.81;;;19.63;nan
20111;BME280;10216;42.658;23.248;2023-06-24T00:34:43;93791.66;;;19.60;nan
20111;BME280;10216;42.658;23.248;2023-06-24T00:37:09;93784.50;;;19.56;nan
20111;BME280;10216;42.658;23.248;2023-06-24T00:39:34;93782.28;;;19.59;nan
20111;BME280;10216;42.658;23.248;2023-06-24T00:42:00;93777.28;;;19.58;nan
20111;BME280;10216;42.658;23.248;2023-06-24T00:44:25;93778.72;;;19.54;nan
20111;BME280;10216;42.658;23.248;2023-06-24T00:46:50;93768.38;;;19.47;nan
20111;BME280;10216;42.658;23.248;2023-06-24T00:49:16;93764.34;;;19.51;nan
20111;BME280;10216;42.658;23.248;2023-06-24T00:51:41;93764.09;;;19.53;nan
20111;BME280;10216;42.658;23.248;2023-06-24T00:54:12;93754.47;;;19.53;nan
20111;BME280;10216;42.658;23.248;2023-06-24T00:56:38;93759.13;;;19.51;nan
20111;BME280;10216;42.658;23.248;2023-06-24T00:59:04;93757.56;;;19.43;nan
20111;BME280;10216;42.658;23.248;2023-06-24T01:01:33;93755.84;;;19.37;nan
20111;BME280;10216;42.658;23.248;2023-06-24T01:04:01;93753.66;;;19.34;nan
20111;BME280;10216;42.658;23.248;2023-06-24T01:06:31;93761.09;;;19.31;nan
20111;BME280;10216;42.658;23.248;2023-06-24T01:08:57;93750.31;;;19.27;nan
20111;BME280;10216;42.658;23.248;2023-06-24T01:11:23;93745.91;;;19.28;nan
20111;BME280;10216;42.658;23.248;2023-06-24T01:13:49;93747.94;;;19.26;nan
20111;BME280;10216;42.658;23.248;2023-06-24T01:16:42;93746.34;;;19.25;nan
20111;BME280;10216;42.658;23.248;2023-06-24T01:21:54;93733.97;;;19.20;nan
20111;BME280;10216;42.658;23.248;2023-06-24T01:24:34;93735.19;;;19.18;nan
20111;BME280;10216;42.658;23.248;2023-06-24T01:30:04;93754.94;;;19.07;nan
20111;BME280;10216;42.658;23.248;2023-06-24T01:32:43;93756.72;;;19.06;nan
20111;BME280;10216;42.658;23.248;2023-06-24T01:35:17;93754.75;;;19.02;nan
20111;BME280;10216;42.658;23.248;2023-06-24T01:37:47;93764.75;;;19.05;nan
20111;BME280;10216;42.658;23.248;2023-06-24T01:40:37;93764.97;;;19.03;nan
20111;BME280;10216;42.658;23.248;2023-06-24T01:43:06;93770.53;;;19.07;nan
20111;BME280;10216;42.658;23.248;2023-06-24T01:45:37;93777.09;;;19.09;nan
20111;BME280;10216;42.658;23.248;2023-06-24T01:50:57;93789.13;;;19.10;nan
20111;BME280;10216;42.658;23.248;2023-06-24T01:53:23;93780.16;;;19.06;nan
20111;BME280;10216;42.658;23.248;2023-06-24T01:55:50;93787.44;;;18.98;nan
20111;BME280;10216;42.658;23.248;2023-06-24T01:58:17;93790.34;;;19.08;nan
20111;BME280;10216;42.658;23.248;2023-06-24T02:00:44;93795.31;;;19.09;nan
20111;BME280;10216;42.658;23.248;2023-06-24T02:03:11;93797.72;;;19.11;nan
20111;BME280;10216;42.658;23.248;2023-06-24T02:05:38;93798.09;;;19.15;nan
20111;BME280;10216;42.658;23.248;2023-06-24T02:08:10;93797.31;;;19.14;nan
20111;BME280;10216;42.658;23.248;2023-06-24T02:10:39;93797.09;;;19.16;nan
20111;BME280;10216;42.658;23.248;2023-06-24T02:13:05;93796.06;;;19.17;nan
20111;BME280;10216;42.658;23.248;2023-06-24T02:15:33;93796.50;;;19.14;nan
20111;BME280;10216;42.658;23.248;2023-06-24T02:18:01;93803.13;;;19.09;nan
20111;BME280;10216;42.658;23.248;2023-06-24T02:20:28;93802.03;;;18.99;nan
20111;BME280;10216;42.658;23.248;2023-06-24T02:22:57;93799.50;;;18.92;nan
20111;BME280;10216;42.658;23.248;2023-06-24T02:25:24;93807.25;;;18.99;nan
20111;BME280;10216;42.658;23.248;2023-06-24T02:27:52;93816.00;;;19.04;nan
20111;BME280;10216;42.658;23.248;2023-06-24T02:30:19;93817.81;;;19.04;nan
20111;BME280;10216;42.658;23.248;2023-06-24T02:32:45;93827.78;;;19.07;nan
20111;BME280;10216;42.658;23.248;2023-06-24T02:35:10;93833.00;;;19.07;nan
20111;BME280;10216;42.658;23.248;2023-06-24T02:37:36;93825.00;;;19.02;nan
20111;BME280;10216;42.658;23.248;2023-06-24T02:40:02;93831.00;;;19.02;nan
20111;BME280;10216;42.658;23.248;2023-06-24T02:42:29;93830.34;;;19.14;nan
20111;BME280;10216;42.658;23.248;2023-06-24T02:44:55;93826.41;;;19.04;nan
20111;BME280;10216;42.658;23.248;2023-06-24T02:47:20;93835.53;;;19.14;nan
20111;BME280;10216;42.658;23.248;2023-06-24T02:49:48;93824.50;;;19.18;nan
20111;BME280;10216;42.658;23.248;2023-06-24T02:52:17;93829.22;;;19.28;nan
20111;BME280;10216;42.658;23.248;2023-06-24T02:54:43;93833.69;;;19.21;nan
20111;BME280;10216;42.658;23.248;2023-06-24T02:57:09;93836.38;;;19.32;nan
20111;BME280;10216;42.658;23.248;2023-06-24T02:59:36;93843.56;;;19.37;nan
20111;BME280;10216;42.658;23.248;2023-06-24T03:02:03;93844.31;;;19.44;nan
20111;BME280;10216;42.658;23.248;2023-06-24T03:04:29;93842.38;;;19.33;nan
20111;BME280;10216;42.658;23.248;2023-06-24T03:06:55;93841.53;;;19.39;nan
20111;BME280;10216;42.658;23.248;2023-06-24T03:09:21;93837.78;;;19.35;nan
20111;BME280;10216;42.658;23.248;2023-06-24T03:11:48;93829.44;;;19.26;nan
20111;BME280;10216;42.658;23.248;2023-06-24T03:14:13;93829.06;;;19.23;nan
20111;BME280;10216;42.658;23.248;2023-06-24T03:16:39;93838.63;;;19.29;nan
20111;BME280;10216;42.658;23.248;2023-06-24T03:19:05;93837.38;;;19.31;nan
20111;BME280;10216;42.658;23.248;2023-06-24T03:21:30;93841.59;;;19.32;nan
20111;BME280;10216;42.658;23.248;2023-06-24T03:23:56;93844.41;;;19.31;nan
20111;BME280;10216;42.658;23.248;2023-06-24T03:26:24;93850.72;;;19.41;nan
20111;BME280;10216;42.658;23.248;2023-06-24T03:28:50;93861.00;;;19.36;nan
20111;BME280;10216;42.658;23.248;2023-06-24T03:31:15;93858.44;;;19.30;nan
20111;BME280;10216;42.658;23.248;2023-06-24T03:33:41;93870.16;;;19.39;nan
20111;BME280;10216;42.658;23.248;2023-06-24T03:36:10;93873.34;;;19.47;nan
20111;BME280;10216;42.658;23.248;2023-06-24T03:38:35;93873.47;;;19.53;nan
20111;BME280;10216;42.658;23.248;2023-06-24T03:41:01;93866.69;;;19.52;nan
20111;BME280;10216;42.658;23.248;2023-06-24T03:43:26;93870.47;;;19.56;nan
20111;BME280;10216;42.658;23.248;2023-06-24T03:45:52;93879.47;;;19.53;nan
20111;BME280;10216;42.658;23.248;2023-06-24T03:48:17;93881.41;;;19.64;nan
20111;BME280;10216;42.658;23.248;2023-06-24T03:50:43;93888.56;;;19.69;nan
20111;BME280;10216;42.658;23.248;2023-06-24T03:53:08;93883.50;;;19.74;nan
20111;BME280;10216;42.658;23.248;2023-06-24T03:55:33;93888.16;;;19.72;nan
20111;BME280;10216;42.658;23.248;2023-06-24T03:57:59;93885.81;;;19.82;nan
20111;BME280;10216;42.658;23.248;2023-06-24T04:00:24;93883.72;;;19.91;nan
20111;BME280;10216;42.658;23.248;2023-06-24T04:02:50;93875.63;;;19.99;nan
20111;BME280;10216;42.658;23.248;2023-06-24T04:05:17;93877.38;;;20.05;nan
20111;BME280;10216;42.658;23.248;2023-06-24T04:07:42;93886.38;;;20.09;nan
20111;BME280;10216;42.658;23.248;2023-06-24T04:10:12;93888.31;;;20.13;nan
20111;BME280;10216;42.658;23.248;2023-06-24T04:12:38;93883.22;;;20.18;nan
20111;BME280;10216;42.658;23.248;2023-06-24T04:15:04;93885.63;;;20.20;nan
20111;BME280;10216;42.658;23.248;2023-06-24T04:17:30;93877.00;;;20.19;nan
20111;BME280;10216;42.658;23.248;2023-06-24T04:19:55;93877.81;;;20.20;nan
20111;BME280;10216;42.658;23.248;2023-06-24T04:22:21;93873.69;;;20.31;nan
20111;BME280;10216;42.658;23.248;2023-06-24T04:24:46;93869.84;;;20.33;nan
20111;BME280;10216;42.658;23.248;2023-06-24T04:27:12;93870.56;;;20.40;nan
20111;BME280;10216;42.658;23.248;2023-06-24T04:29:37;93868.53;;;20.42;nan
20111;BME280;10216;42.658;23.248;2023-06-24T04:32:02;93860.03;;;20.47;nan
20111;BME280;10216;42.658;23.248;2023-06-24T04:34:28;93849.28;;;20.43;nan
20111;BME280;10216;42.658;23.248;2023-06-24T04:36:53;93859.03;;;20.48;nan
20111;BME280;10216;42.658;23.248;2023-06-24T04:39:19;93870.94;;;20.44;nan
20111;BME280;10216;42.658;23.248;2023-06-24T04:41:44;93867.78;;;20.53;nan
20111;BME280;10216;42.658;23.248;2023-06-24T04:44:10;93872.44;;;20.51;nan
20111;BME280;10216;42.658;23.248;2023-06-24T04:46:35;93871.09;;;20.60;nan
20111;BME280;10216;42.658;23.248;2023-06-24T04:49:00;93880.22;;;20.70;nan
20111;BME280;10216;42.658;23.248;2023-06-24T04:51:26;93879.31;;;20.76;nan
20111;BME280;10216;42.658;23.248;2023-06-24T04:53:51;93889.91;;;20.81;nan
20111;BME280;10216;42.658;23.248;2023-06-24T04:56:16;93883.22;;;20.85;nan
20111;BME280;10216;42.658;23.248;2023-06-24T04:58:42;93882.91;;;20.93;nan
20111;BME280;10216;42.658;23.248;2023-06-24T05:01:07;93883.91;;;20.92;nan
20111;BME280;10216;42.658;23.248;2023-06-24T05:03:32;93884.03;;;20.85;nan
20111;BME280;10216;42.658;23.248;2023-06-24T05:05:58;93883.50;;;20.95;nan
20111;BME280;10216;42.658;23.248;2023-06-24T05:08:24;93883.72;;;21.05;nan
20111;BME280;10216;42.658;23.248;2023-06-24T05:10:49;93881.59;;;21.14;nan
20111;BME280;10216;42.658;23.248;2023-06-24T05:13:14;93882.00;;;21.17;nan
20111;BME280;10216;42.658;23.248;2023-06-24T05:15:40;93883.47;;;21.25;nan
20111;BME280;10216;42.658;23.248;2023-06-24T05:18:05;93878.59;;;21.28;nan
20111;BME280;10216;42.658;23.248;2023-06-24T05:20:31;93883.28;;;21.08;nan
20111;BME280;10216;42.658;23.248;2023-06-24T05:22:56;93872.34;;;21.18;nan
20111;BME280;10216;42.658;23.248;2023-06-24T05:25:21;93858.97;;;21.37;nan
20111;BME280;10216;42.658;23.248;2023-06-24T05:27:47;93861.47;;;21.44;nan
20111;BME280;10216;42.658;23.248;2023-06-24T05:30:13;93860.66;;;21.43;nan
20111;BME280;10216;42.658;23.248;2023-06-24T05:32:39;93863.03;;;21.57;nan
20111;BME280;10216;42.658;23.248;2023-06-24T05:35:05;93869.28;;;21.56;nan
20111;BME280;10216;42.658;23.248;2023-06-24T05:37:31;93876.34;;;21.67;nan
20111;BME280;10216;42.658;23.248;2023-06-24T05:39:56;93872.69;;;21.79;nan
20111;BME280;10216;42.658;23.248;2023-06-24T05:42:22;93873.59;;;21.85;nan
20111;BME280;10216;42.658;23.248;2023-06-24T05:44:48;93873.81;;;21.83;nan
20111;BME280;10216;42.658;23.248;2023-06-24T05:47:15;93871.91;;;22.02;nan
20111;BME280;10216;42.658;23.248;2023-06-24T05:49:40;93876.31;;;22.13;nan
20111;BME280;10216;42.658;23.248;2023-06-24T05:52:05;93871.44;;;22.17;nan
20111;BME280;10216;42.658;23.248;2023-06-24T05:54:31;93864.03;;;22.26;nan
20111;BME280;10216;42.658;23.248;2023-06-24T05:56:56;93862.53;;;22.30;nan
20111;BME280;10216;42.658;23.248;2023-06-24T05:59:22;93860.47;;;22.32;nan
20111;BME280;10216;42.658;23.248;2023-06-24T06:01:47;93862.06;;;22.33;nan
20111;BME280;10216;42.658;23.248;2023-06-24T06:04:12;93855.56;;;22.35;nan
20111;BME280;10216;42.658;23.248;2023-06-24T06:06:38;93854.13;;;22.56;nan
20111;BME280;10216;42.658;23.248;2023-06-24T06:09:04;93849.88;;;22.67;nan
20111;BME280;10216;42.658;23.248;2023-06-24T06:11:30;93846.78;;;22.81;nan
20111;BME280;10216;42.658;23.248;2023-06-24T06:13:56;93859.16;;;22.86;nan
20111;BME280;10216;42.658;23.248;2023-06-24T06:16:21;93856.50;;;22.98;nan
20111;BME280;10216;42.658;23.248;2023-06-24T06:18:47;93864.56;;;23.13;nan
20111;BME280;10216;42.658;23.248;2023-06-24T06:21:12;93858.09;;;23.15;nan
20111;BME280;10216;42.658;23.248;2023-06-24T06:23:37;93859.75;;;23.21;nan
20111;BME280;10216;42.658;23.248;2023-06-24T06:26:03;93863.81;;;23.29;nan
20111;BME280;10216;42.658;23.248;2023-06-24T06:28:29;93867.03;;;23.48;nan
20111;BME280;10216;42.658;23.248;2023-06-24T06:30:54;93871.13;;;23.60;nan
20111;BME280;10216;42.658;23.248;2023-06-24T06:33:22;93878.09;;;23.71;nan
20111;BME280;10216;42.658;23.248;2023-06-24T06:35:47;93878.88;;;23.89;nan
20111;BME280;10216;42.658;23.248;2023-06-24T06:38:13;93871.50;;;23.86;nan
20111;BME280;10216;42.658;23.248;2023-06-24T06:40:39;93878.38;;;23.92;nan
20111;BME280;10216;42.658;23.248;2023-06-24T06:43:05;93886.00;;;24.10;nan
20111;BME280;10216;42.658;23.248;2023-06-24T06:45:30;93882.63;;;24.31;nan
20111;BME280;10216;42.658;23.248;2023-06-24T06:47:56;93878.91;;;24.27;nan
20111;BME280;10216;42.658;23.248;2023-06-24T06:50:21;93882.19;;;24.39;nan
20111;BME280;10216;42.658;23.248;2023-06-24T06:52:46;93885.53;;;24.57;nan
20111;BME280;10216;42.658;23.248;2023-06-24T06:55:12;93879.38;;;24.68;nan
20111;BME280;10216;42.658;23.248;2023-06-24T06:57:37;93875.31;;;24.82;nan
20111;BME280;10216;42.658;23.248;2023-06-24T07:00:03;93876.94;;;24.88;nan
20111;BME280;10216;42.658;23.248;2023-06-24T07:02:29;93880.84;;;24.59;nan
20111;BME280;10216;42.658;23.248;2023-06-24T07:04:54;93881.25;;;24.94;nan
20111;BME280;10216;42.658;23.248;2023-06-24T07:07:20;93881.41;;;25.09;nan
20111;BME280;10216;42.658;23.248;2023-06-24T07:09:45;93880.00;;;25.28;nan
20111;BME280;10216;42.658;23.248;2023-06-24T07:12:11;93877.78;;;25.47;nan
20111;BME280;10216;42.658;23.248;2023-06-24T07:14:38;93887.44;;;25.69;nan
20111;BME280;10216;42.658;23.248;2023-06-24T07:17:04;93883.31;;;25.83;nan
20111;BME280;10216;42.658;23.248;2023-06-24T07:19:29;93885.53;;;26.01;nan
20111;BME280;10216;42.658;23.248;2023-06-24T07:21:54;93884.78;;;26.05;nan
20111;BME280;10216;42.658;23.248;2023-06-24T07:24:20;93881.69;;;26.19;nan
20111;BME280;10216;42.658;23.248;2023-06-24T07:26:45;93886.50;;;26.32;nan
20111;BME280;10216;42.658;23.248;2023-06-24T07:29:10;93885.97;;;26.30;nan
20111;BME280;10216;42.658;23.248;2023-06-24T07:31:36;93879.75;;;25.99;nan
20111;BME280;10216;42.658;23.248;2023-06-24T07:34:02;93884.50;;;26.49;nan
20111;BME280;10216;42.658;23.248;2023-06-24T07:36:27;93878.38;;;26.38;nan
20111;BME280;10216;42.658;23.248;2023-06-24T07:38:53;93881.88;;;26.59;nan
20111;BME280;10216;42.658;23.248;2023-06-24T07:41:18;93873.53;;;26.77;nan
20111;BME280;10216;42.658;23.248;2023-06-24T07:43:43;93873.09;;;27.11;nan
20111;BME280;10216;42.658;23.248;2023-06-24T07:46:09;93875.47;;;27.33;nan
20111;BME280;10216;42.658;23.248;2023-06-24T07:48:34;93881.03;;;27.41;nan
20111;BME280;10216;42.658;23.248;2023-06-24T07:51:00;93878.38;;;27.82;nan
20111;BME280;10216;42.658;23.248;2023-06-24T07:53:25;93879.47;;;27.86;nan
20111;BME280;10216;42.658;23.248;2023-06-24T07:55:50;93886.00;;;28.04;nan
20111;BME280;10216;42.658;23.248;2023-06-24T07:58:16;93885.22;;;28.18;nan
20111;BME280;10216;42.658;23.248;2023-06-24T08:00:41;93891.28;;;28.29;nan
20111;BME280;10216;42.658;23.248;2023-06-24T08:03:07;93890.38;;;28.54;nan
20111;BME280;10216;42.658;23.248;2023-06-24T08:05:33;93889.34;;;28.50;nan
20111;BME280;10216;42.658;23.248;2023-06-24T08:07:58;93892.47;;;28.67;nan
20111;BME280;10216;42.658;23.248;2023-06-24T08:10:24;93901.00;;;29.08;nan
20111;BME280;10216;42.658;23.248;2023-06-24T08:12:49;93886.81;;;29.38;nan
20111;BME280;10216;42.658;23.248;2023-06-24T08:15:15;93884.22;;;29.67;nan
20111;BME280;10216;42.658;23.248;2023-06-24T08:17:40;93888.97;;;29.65;nan
20111;BME280;10216;42.658;23.248;2023-06-24T08:20:06;93885.53;;;29.64;nan
20111;BME280;10216;42.658;23.248;2023-06-24T08:22:31;93897.03;;;29.83;nan
20111;BME280;10216;42.658;23.248;2023-06-24T08:24:58;93886.16;;;29.85;nan
20111;BME280;10216;42.658;23.248;2023-06-24T08:27:23;93885.75;;;30.31;nan
20111;BME280;10216;42.658;23.248;2023-06-24T08:29:48;93877.34;;;30.23;nan
20111;BME280;10216;42.658;23.248;2023-06-24T08:32:14;93890.16;;;30.64;nan
20111;BME280;10216;42.658;23.248;2023-06-24T08:34:39;93884.63;;;30.60;nan
20111;BME280;10216;42.658;23.248;2023-06-24T08:37:05;93879.78;;;30.68;nan
20111;BME280;10216;42.658;23.248;2023-06-24T08:39:30;93877.56;;;30.93;nan
20111;BME280;10216;42.658;23.248;2023-06-24T08:41:56;93874.53;;;31.56;nan
20111;BME280;10216;42.658;23.248;2023-06-24T08:44:21;93876.63;;;31.92;nan
20111;BME280;10216;42.658;23.248;2023-06-24T08:46:47;93869.19;;;32.07;nan
20111;BME280;10216;42.658;23.248;2023-06-24T08:51:41;93864.09;;;32.66;nan
20111;BME280;10216;42.658;23.248;2023-06-24T08:54:09;93868.84;;;32.82;nan
20111;BME280;10216;42.658;23.248;2023-06-24T08:56:36;93864.88;;;33.21;nan
20111;BME280;10216;42.658;23.248;2023-06-24T08:59:05;93874.00;;;33.15;nan
20111;BME280;10216;42.658;23.248;2023-06-24T09:01:31;93870.66;;;33.67;nan
20111;BME280;10216;42.658;23.248;2023-06-24T09:03:56;93875.63;;;34.05;nan
20111;BME280;10216;42.658;23.248;2023-06-24T09:06:22;93872.19;;;34.75;nan
20111;BME280;10216;42.658;23.248;2023-06-24T09:08:57;93871.59;;;34.87;nan
20111;BME280;10216;42.658;23.248;2023-06-24T09:11:27;93860.59;;;34.79;nan
20111;BME280;10216;42.658;23.248;2023-06-24T09:13:57;93871.31;;;34.66;nan
20111;BME280;10216;42.658;23.248;2023-06-24T09:16:23;93861.28;;;34.63;nan
20111;BME280;10216;42.658;23.248;2023-06-24T09:18:50;93865.31;;;34.12;nan
20111;BME280;10216;42.658;23.248;2023-06-24T09:21:25;93859.72;;;34.62;nan
20111;BME280;10216;42.658;23.248;2023-06-24T09:23:55;93865.50;;;35.55;nan
20111;BME280;10216;42.658;23.248;2023-06-24T09:26:27;93872.06;;;36.00;nan
20111;BME280;10216;42.658;23.248;2023-06-24T09:28:53;93876.75;;;36.21;nan
20111;BME280;10216;42.658;23.248;2023-06-24T09:31:19;93875.75;;;36.34;nan
20111;BME280;10216;42.658;23.248;2023-06-24T09:33:48;93874.84;;;36.30;nan
20111;BME280;10216;42.658;23.248;2023-06-24T09:36:14;93866.50;;;36.61;nan
20111;BME280;10216;42.658;23.248;2023-06-24T09:38:41;93867.50;;;36.86;nan
20111;BME280;10216;42.658;23.248;2023-06-24T09:41:08;93874.03;;;36.38;nan
20111;BME280;10216;42.658;23.248;2023-06-24T09:43:34;93874.44;;;37.37;nan
20111;BME280;10216;42.658;23.248;2023-06-24T09:46:05;93872.25;;;37.51;nan
20111;BME280;10216;42.658;23.248;2023-06-24T09:48:33;93867.88;;;37.26;nan
20111;BME280;10216;42.658;23.248;2023-06-24T09:51:03;93868.38;;;38.14;nan
20111;BME280;10216;42.658;23.248;2023-06-24T09:53:33;93858.81;;;38.38;nan
20111;BME280;10216;42.658;23.248;2023-06-24T09:56:00;93863.97;;;38.79;nan
20111;BME280;10216;42.658;23.248;2023-06-24T09:58:30;93859.69;;;38.29;nan
20111;BME280;10216;42.658;23.248;2023-06-24T10:00:57;93859.28;;;39.00;nan
20111;BME280;10216;42.658;23.248;2023-06-24T10:03:27;93864.53;;;39.09;nan
20111;BME280;10216;42.658;23.248;2023-06-24T10:05:53;93851.44;;;38.83;nan
20111;BME280;10216;42.658;23.248;2023-06-24T10:08:18;93838.00;;;38.22;nan
20111;BME280;10216;42.658;23.248;2023-06-24T10:10:46;93844.41;;;39.43;nan
20111;BME280;10216;42.658;23.248;2023-06-24T10:13:11;93839.00;;;39.55;nan
20111;BME280;10216;42.658;23.248;2023-06-24T10:15:37;93841.78;;;39.87;nan
20111;BME280;10216;42.658;23.248;2023-06-24T10:18:38;93839.03;;;39.43;nan
20111;BME280;10216;42.658;23.248;2023-06-24T10:21:06;93829.25;;;39.51;nan
20111;BME280;10216;42.658;23.248;2023-06-24T10:26:29;93827.25;;;39.08;nan
20111;BME280;10216;42.658;23.248;2023-06-24T10:36:53;93811.88;;;40.35;nan
20111;BME280;10216;42.658;23.248;2023-06-24T10:44:51;93794.31;;;42.53;nan
20111;BME280;10216;42.658;23.248;2023-06-24T10:47:17;93792.81;;;41.29;nan
20111;BME280;10216;42.658;23.248;2023-06-24T10:49:43;93781.34;;;41.71;nan
20111;BME280;10216;42.658;23.248;2023-06-24T10:52:09;93785.47;;;41.88;nan
20111;BME280;10216;42.658;23.248;2023-06-24T10:54:36;93779.47;;;42.43;nan
20111;BME280;10216;42.658;23.248;2023-06-24T10:57:03;93775.78;;;42.06;nan
20111;BME280;10216;42.658;23.248;2023-06-24T10:59:43;93776.13;;;42.27;nan
20111;BME280;10216;42.658;23.248;2023-06-24T11:02:15;93770.75;;;42.04;nan
20111;BME280;10216;42.658;23.248;2023-06-24T11:04:52;93775.44;;;41.46;nan
20111;BME280;10216;42.658;23.248;2023-06-24T11:07:19;93773.50;;;40.89;nan
20111;BME280;10216;42.658;23.248;2023-06-24T11:10:15;93781.41;;;40.31;nan
20111;BME280;10216;42.658;23.248;2023-06-24T11:12:41;93776.47;;;40.33;nan
20111;BME280;10216;42.658;23.248;2023-06-24T11:15:12;93771.16;;;38.54;nan
20111;BME280;10216;42.658;23.248;2023-06-24T11:17:38;93771.56;;;40.70;nan
20111;BME280;10216;42.658;23.248;2023-06-24T11:22:34;93777.09;;;41.51;nan
20111;BME280;10216;42.658;23.248;2023-06-24T11:24:59;93778.50;;;41.25;nan
20111;BME280;10216;42.658;23.248;2023-06-24T11:27:29;93769.84;;;40.15;nan
20111;BME280;10216;42.658;23.248;2023-06-24T11:29:57;93765.25;;;41.55;nan
20111;BME280;10216;42.658;23.248;2023-06-24T11:32:24;93758.50;;;42.60;nan
20111;BME280;10216;42.658;23.248;2023-06-24T11:34:49;93769.56;;;43.34;nan
20111;BME280;10216;42.658;23.248;2023-06-24T11:37:17;93767.72;;;43.45;nan
20111;BME280;10216;42.658;23.248;2023-06-24T11:39:43;93771.09;;;43.68;nan
20111;BME280;10216;42.658;23.248;2023-06-24T11:42:10;93768.22;;;42.38;nan
20111;BME280;10216;42.658;23.248;2023-06-24T11:44:45;93757.06;;;41.94;nan
20111;BME280;10216;42.658;23.248;2023-06-24T11:47:11;93753.94;;;41.30;nan
20111;BME280;10216;42.658;23.248;2023-06-24T11:49:55;93740.25;;;39.56;nan
20111;BME280;10216;42.658;23.248;2023-06-24T11:52:32;93740.38;;;37.25;nan
20111;BME280;10216;42.658;23.248;2023-06-24T11:54:58;93738.38;;;36.59;nan
20111;BME280;10216;42.658;23.248;2023-06-24T11:57:54;93729.13;;;35.43;nan
20111;BME280;10216;42.658;23.248;2023-06-24T12:00:21;93712.19;;;34.53;nan
20111;BME280;10216;42.658;23.248;2023-06-24T12:02:49;93694.78;;;33.90;nan
20111;BME280;10216;42.658;23.248;2023-06-24T12:05:41;93687.88;;;33.89;nan
20111;BME280;10216;42.658;23.248;2023-06-24T12:08:11;93683.75;;;33.43;nan
20111;BME280;10216;42.658;23.248;2023-06-24T12:10:38;93671.34;;;33.08;nan
20111;BME280;10216;42.658;23.248;2023-06-24T12:13:05;93672.69;;;32.97;nan
20111;BME280;10216;42.658;23.248;2023-06-24T12:15:34;93669.63;;;32.45;nan
20111;BME280;10216;42.658;23.248;2023-06-24T12:18:00;93681.44;;;31.89;nan
20111;BME280;10216;42.658;23.248;2023-06-24T12:20:26;93684.16;;;31.57;nan
20111;BME280;10216;42.658;23.248;2023-06-24T12:22:52;93679.88;;;31.61;nan
20111;BME280;10216;42.658;23.248;2023-06-24T12:25:17;93674.16;;;31.40;nan
20111;BME280;10216;42.658;23.248;2023-06-24T12:27:43;93669.25;;;30.69;nan
20111;BME280;10216;42.658;23.248;2023-06-24T12:30:09;93671.47;;;30.24;nan
20111;BME280;10216;42.658;23.248;2023-06-24T12:32:35;93671.47;;;30.24;nan
20111;BME280;10216;42.658;23.248;2023-06-24T12:35:01;93668.94;;;30.14;nan
20111;BME280;10216;42.658;23.248;2023-06-24T12:37:32;93678.16;;;29.98;nan
20111;BME280;10216;42.658;23.248;2023-06-24T12:40:05;93680.66;;;29.65;nan
20111;BME280;10216;42.658;23.248;2023-06-24T12:42:30;93693.09;;;29.41;nan
20111;BME280;10216;42.658;23.248;2023-06-24T12:44:56;93710.72;;;29.22;nan
20111;BME280;10216;42.658;23.248;2023-06-24T12:47:21;93725.59;;;29.18;nan
20111;BME280;10216;42.658;23.248;2023-06-24T12:49:47;93733.72;;;28.92;nan
20111;BME280;10216;42.658;23.248;2023-06-24T12:52:13;93732.59;;;28.98;nan
20111;BME280;10216;42.658;23.248;2023-06-24T12:54:39;93734.56;;;28.83;nan
20111;BME280;10216;42.658;23.248;2023-06-24T12:57:05;93738.06;;;28.78;nan
20111;BME280;10216;42.658;23.248;2023-06-24T12:59:30;93734.47;;;28.54;nan
20111;BME280;10216;42.658;23.248;2023-06-24T13:01:56;93736.28;;;28.63;nan
20111;BME280;10216;42.658;23.248;2023-06-24T13:04:21;93726.38;;;28.45;nan
20111;BME280;10216;42.658;23.248;2023-06-24T13:06:49;93711.94;;;28.27;nan
20111;BME280;10216;42.658;23.248;2023-06-24T13:09:14;93704.75;;;28.33;nan
20111;BME280;10216;42.658;23.248;2023-06-24T13:11:40;93698.28;;;28.15;nan
20111;BME280;10216;42.658;23.248;2023-06-24T13:14:05;93690.66;;;27.98;nan
20111;BME280;10216;42.658;23.248;2023-06-24T13:16:31;93695.72;;;27.90;nan
20111;BME280;10216;42.658;23.248;2023-06-24T13:18:56;93717.94;;;27.74;nan
20111;BME280;10216;42.658;23.248;2023-06-24T13:21:22;93721.44;;;27.39;nan
20111;BME280;10216;42.658;23.248;2023-06-24T13:23:48;93707.53;;;27.23;nan
20111;BME280;10216;42.658;23.248;2023-06-24T13:26:14;93701.47;;;27.12;nan
20111;BME280;10216;42.658;23.248;2023-06-24T13:28:40;93710.16;;;27.23;nan
20111;BME280;10216;42.658;23.248;2023-06-24T13:31:05;93721.75;;;27.22;nan
20111;BME280;10216;42.658;23.248;2023-06-24T13:33:31;93748.09;;;27.32;nan
20111;BME280;10216;42.658;23.248;2023-06-24T13:35:56;93767.38;;;27.02;nan
20111;BME280;10216;42.658;23.248;2023-06-24T13:38:22;93790.81;;;27.09;nan